createdAt,value
2017-01-15T00:00:04.454Z,1008.35
2017-01-15T00:00:30.555Z,1008.31
2017-01-15T00:00:56.662Z,1008.31
2017-01-15T00:01:22.769Z,1008.31
2017-01-15T00:01:48.888Z,1008.33
2017-01-15T00:02:14.999Z,1008.33
2017-01-15T00:02:41.110Z,1008.32
2017-01-15T00:03:07.204Z,1008.33
2017-01-15T00:03:33.352Z,1008.36
2017-01-15T00:03:59.464Z,1008.31
2017-01-15T00:04:25.561Z,1008.36
2017-01-15T00:04:51.648Z,1008.34
2017-01-15T00:05:17.764Z,1008.32
2017-01-15T00:05:43.891Z,1008.32
2017-01-15T00:06:09.993Z,1008.39
2017-01-15T00:06:36.084Z,1008.41
2017-01-15T00:07:02.215Z,1008.39
2017-01-15T00:07:28.333Z,1008.38
2017-01-15T00:07:54.435Z,1008.38
2017-01-15T00:08:20.539Z,1008.38
2017-01-15T00:08:46.657Z,1008.4
2017-01-15T00:09:12.779Z,1008.4
2017-01-15T00:09:38.886Z,1008.43
2017-01-15T00:10:04.992Z,1008.41
2017-01-15T00:10:31.111Z,1008.39
2017-01-15T00:10:57.212Z,1008.41
2017-01-15T00:11:23.336Z,1008.37
2017-01-15T00:11:49.462Z,1008.39
2017-01-15T00:12:15.558Z,1008.36
2017-01-15T00:12:41.645Z,1008.41
2017-01-15T00:13:07.744Z,1008.39
2017-01-15T00:13:33.848Z,1008.34
2017-01-15T00:13:59.937Z,1008.36
2017-01-15T00:14:26.039Z,1008.33
2017-01-15T00:14:52.151Z,1008.38
2017-01-15T00:15:18.252Z,1008.39
2017-01-15T00:15:44.356Z,1008.43
2017-01-15T00:16:10.444Z,1008.43
2017-01-15T00:16:36.555Z,1008.4
2017-01-15T00:17:02.679Z,1008.47
2017-01-15T00:17:28.790Z,1008.41
2017-01-15T00:17:54.887Z,1008.5
2017-01-15T00:18:21.002Z,1008.45
2017-01-15T00:18:47.127Z,1008.49
2017-01-15T00:19:13.224Z,1008.43
2017-01-15T00:19:39.334Z,1008.42
2017-01-15T00:20:05.450Z,1008.47
2017-01-15T00:20:31.551Z,1008.45
2017-01-15T00:20:57.661Z,1008.42
2017-01-15T00:21:23.759Z,1008.45
2017-01-15T00:21:49.868Z,1008.47
2017-01-15T00:22:15.956Z,1008.4
2017-01-15T00:22:42.041Z,1008.43
2017-01-15T00:23:08.155Z,1008.44
2017-01-15T00:23:34.251Z,1008.48
2017-01-15T00:24:00.344Z,1008.44
2017-01-15T00:24:26.534Z,1008.42
2017-01-15T00:24:52.636Z,1008.47
2017-01-15T00:25:18.755Z,1008.37
2017-01-15T00:25:44.858Z,1008.43
2017-01-15T00:26:10.975Z,1008.41
2017-01-15T00:26:37.076Z,1008.47
2017-01-15T00:27:03.199Z,1008.47
2017-01-15T00:27:29.313Z,1008.45
2017-01-15T00:27:55.412Z,1008.45
2017-01-15T00:28:21.514Z,1008.47
2017-01-15T00:28:47.628Z,1008.49
2017-01-15T00:29:13.723Z,1008.46
2017-01-15T00:29:39.822Z,1008.46
2017-01-15T00:30:05.931Z,1008.46
2017-01-15T00:30:32.038Z,1008.47
2017-01-15T00:30:58.118Z,1008.48
2017-01-15T00:31:24.237Z,1008.48
2017-01-15T00:31:50.334Z,1008.49
2017-01-15T00:32:16.455Z,1008.5
2017-01-15T00:32:42.551Z,1008.48
2017-01-15T00:33:08.642Z,1008.5
2017-01-15T00:33:34.761Z,1008.48
2017-01-15T00:34:00.875Z,1008.48
2017-01-15T00:34:26.958Z,1008.48
2017-01-15T00:34:53.079Z,1008.48
2017-01-15T00:35:19.183Z,1008.43
2017-01-15T00:35:45.261Z,1008.46
2017-01-15T00:36:11.374Z,1008.49
2017-01-15T00:36:37.483Z,1008.5
2017-01-15T00:37:03.597Z,1008.52
2017-01-15T00:37:29.705Z,1008.48
2017-01-15T00:37:55.812Z,1008.46
2017-01-15T00:38:21.932Z,1008.47
2017-01-15T00:38:48.046Z,1008.5
2017-01-15T00:39:14.127Z,1008.46
2017-01-15T00:39:40.251Z,1008.48
2017-01-15T00:40:06.364Z,1008.49
2017-01-15T00:40:32.461Z,1008.55
2017-01-15T00:40:58.561Z,1008.52
2017-01-15T00:41:24.665Z,1008.53
2017-01-15T00:41:50.758Z,1008.55
2017-01-15T00:42:16.872Z,1008.55
2017-01-15T00:42:42.992Z,1008.53
2017-01-15T00:43:09.091Z,1008.6
2017-01-15T00:43:35.206Z,1008.62
2017-01-15T00:44:01.299Z,1008.59
2017-01-15T00:44:27.402Z,1008.6
2017-01-15T00:44:53.532Z,1008.59
2017-01-15T00:45:19.642Z,1008.55
2017-01-15T00:45:45.735Z,1008.58
2017-01-15T00:46:11.863Z,1008.55
2017-01-15T00:46:37.977Z,1008.58
2017-01-15T00:47:04.082Z,1008.53
2017-01-15T00:47:30.196Z,1008.59
2017-01-15T00:47:56.305Z,1008.57
2017-01-15T00:48:22.425Z,1008.57
2017-01-15T00:48:48.526Z,1008.58
2017-01-15T00:49:14.617Z,1008.58
2017-01-15T00:49:40.728Z,1008.58
2017-01-15T00:50:06.850Z,1008.61
2017-01-15T00:50:32.972Z,1008.57
2017-01-15T00:50:59.082Z,1008.61
2017-01-15T00:51:25.185Z,1008.57
2017-01-15T00:51:51.270Z,1008.6
2017-01-15T00:52:17.376Z,1008.56
2017-01-15T00:52:43.470Z,1008.59
2017-01-15T00:53:09.579Z,1008.6
2017-01-15T00:53:35.708Z,1008.62
2017-01-15T00:54:01.798Z,1008.57
2017-01-15T00:54:27.938Z,1008.55
2017-01-15T00:54:54.094Z,1008.61
2017-01-15T00:55:20.230Z,1008.6
2017-01-15T00:55:46.342Z,1008.62
2017-01-15T00:56:12.445Z,1008.62
2017-01-15T00:56:38.529Z,1008.64
2017-01-15T00:57:04.633Z,1008.67
2017-01-15T00:57:30.744Z,1008.7
2017-01-15T00:57:56.827Z,1008.63
2017-01-15T00:58:22.931Z,1008.66
2017-01-15T00:58:49.033Z,1008.69
2017-01-15T00:59:15.125Z,1008.68
2017-01-15T00:59:41.231Z,1008.7
2017-01-15T01:00:07.319Z,1008.66
2017-01-15T01:00:33.424Z,1008.68
2017-01-15T01:00:59.529Z,1008.66
2017-01-15T01:01:25.613Z,1008.68
2017-01-15T01:01:51.713Z,1008.66
2017-01-15T01:02:17.821Z,1008.7
2017-01-15T01:02:43.909Z,1008.7
2017-01-15T01:03:10.003Z,1008.68
2017-01-15T01:03:36.108Z,1008.68
2017-01-15T01:04:02.206Z,1008.68
2017-01-15T01:04:28.299Z,1008.66
2017-01-15T01:04:54.399Z,1008.66
2017-01-15T01:05:20.498Z,1008.65
2017-01-15T01:05:46.637Z,1008.7
2017-01-15T01:06:12.721Z,1008.73
2017-01-15T01:06:38.817Z,1008.71
2017-01-15T01:07:04.925Z,1008.71
2017-01-15T01:07:31.021Z,1008.66
2017-01-15T01:07:57.107Z,1008.68
2017-01-15T01:08:23.220Z,1008.63
2017-01-15T01:08:49.312Z,1008.73
2017-01-15T01:09:15.431Z,1008.72
2017-01-15T01:09:41.531Z,1008.73
2017-01-15T01:10:07.630Z,1008.73
2017-01-15T01:10:33.742Z,1008.72
2017-01-15T01:10:59.822Z,1008.72
2017-01-15T01:11:25.927Z,1008.72
2017-01-15T01:11:52.009Z,1008.73
2017-01-15T01:12:18.111Z,1008.71
2017-01-15T01:12:44.217Z,1008.72
2017-01-15T01:13:10.304Z,1008.74
2017-01-15T01:13:36.393Z,1008.73
2017-01-15T01:14:02.503Z,1008.65
2017-01-15T01:14:28.598Z,1008.67
2017-01-15T01:14:54.688Z,1008.73
2017-01-15T01:15:20.794Z,1008.7
2017-01-15T01:15:46.885Z,1008.7
2017-01-15T01:16:12.989Z,1008.76
2017-01-15T01:16:39.081Z,1008.77
2017-01-15T01:17:05.178Z,1008.75
2017-01-15T01:17:31.288Z,1008.75
2017-01-15T01:17:57.378Z,1008.8
2017-01-15T01:18:23.471Z,1008.77
2017-01-15T01:18:49.580Z,1008.81
2017-01-15T01:19:15.677Z,1008.78
2017-01-15T01:19:41.760Z,1008.74
2017-01-15T01:20:07.865Z,1008.79
2017-01-15T01:20:33.960Z,1008.8
2017-01-15T01:21:00.051Z,1008.8
2017-01-15T01:21:26.156Z,1008.74
2017-01-15T01:21:52.240Z,1008.79
2017-01-15T01:22:18.346Z,1008.73
2017-01-15T01:22:44.439Z,1008.79
2017-01-15T01:23:10.523Z,1008.81
2017-01-15T01:23:36.626Z,1008.83
2017-01-15T01:24:02.722Z,1008.78
2017-01-15T01:24:28.807Z,1008.78
2017-01-15T01:24:54.919Z,1008.78
2017-01-15T01:25:21.023Z,1008.79
2017-01-15T01:25:47.109Z,1008.76
2017-01-15T01:26:13.207Z,1008.8
2017-01-15T01:26:39.311Z,1008.79
2017-01-15T01:27:05.404Z,1008.8
2017-01-15T01:27:31.505Z,1008.83
2017-01-15T01:27:57.592Z,1008.83
2017-01-15T01:28:23.696Z,1008.86
2017-01-15T01:28:49.800Z,1008.88
2017-01-15T01:29:15.887Z,1008.92
2017-01-15T01:29:41.985Z,1008.93
2017-01-15T01:30:08.093Z,1008.92
2017-01-15T01:30:34.180Z,1008.9
2017-01-15T01:31:00.274Z,1008.92
2017-01-15T01:31:26.377Z,1008.93
2017-01-15T01:31:52.474Z,1008.96
2017-01-15T01:32:18.566Z,1009
2017-01-15T01:32:44.666Z,1009.04
2017-01-15T01:33:10.766Z,1009.04
2017-01-15T01:33:36.867Z,1009.09
2017-01-15T01:34:02.957Z,1009.09
2017-01-15T01:34:29.052Z,1009.03
2017-01-15T01:34:55.160Z,1009.1
2017-01-15T01:35:21.255Z,1009.12
2017-01-15T01:35:47.341Z,1009.06
2017-01-15T01:36:13.447Z,1009.14
2017-01-15T01:36:39.545Z,1009.12
2017-01-15T01:37:05.632Z,1009.14
2017-01-15T01:37:31.738Z,1009.09
2017-01-15T01:37:57.859Z,1009.13
2017-01-15T01:38:23.957Z,1009.11
2017-01-15T01:38:50.049Z,1009.12
2017-01-15T01:39:16.142Z,1009.1
2017-01-15T01:39:42.247Z,1009.13
2017-01-15T01:40:08.349Z,1009.14
2017-01-15T01:40:34.433Z,1009.13
2017-01-15T01:41:00.538Z,1009.15
2017-01-15T01:41:26.633Z,1009.12
2017-01-15T01:41:52.724Z,1009.12
2017-01-15T01:42:18.829Z,1009.12
2017-01-15T01:42:44.933Z,1009.09
2017-01-15T01:43:11.023Z,1009.01
2017-01-15T01:43:37.121Z,1009.11
2017-01-15T01:44:03.222Z,1009.09
2017-01-15T01:44:29.323Z,1009.02
2017-01-15T01:44:55.419Z,1009.05
2017-01-15T01:45:21.606Z,1009
2017-01-15T01:45:47.716Z,1008.99
2017-01-15T01:46:13.855Z,1009.01
2017-01-15T01:46:39.938Z,1009.05
2017-01-15T01:47:06.035Z,1009.03
2017-01-15T01:47:32.136Z,1009.02
2017-01-15T01:47:58.225Z,1009.02
2017-01-15T01:48:24.319Z,1009
2017-01-15T01:48:50.423Z,1009.03
2017-01-15T01:49:16.515Z,1009.08
2017-01-15T01:49:42.619Z,1009.03
2017-01-15T01:50:08.710Z,1009.05
2017-01-15T01:50:34.808Z,1009.09
2017-01-15T01:51:00.914Z,1009.05
2017-01-15T01:51:27.000Z,1009.06
2017-01-15T01:51:53.100Z,1009.08
2017-01-15T01:52:19.204Z,1009.11
2017-01-15T01:52:45.293Z,1009.06
2017-01-15T01:53:11.387Z,1009.04
2017-01-15T01:53:37.494Z,1009.08
2017-01-15T01:54:03.591Z,1009.09
2017-01-15T01:54:29.689Z,1009.09
2017-01-15T01:54:55.789Z,1009.1
2017-01-15T01:55:21.936Z,1009.12
2017-01-15T01:55:48.028Z,1009.11
2017-01-15T01:56:14.130Z,1009.12
2017-01-15T01:56:40.240Z,1009.16
2017-01-15T01:57:06.320Z,1009.16
2017-01-15T01:57:32.418Z,1009.13
2017-01-15T01:57:58.527Z,1009.2
2017-01-15T01:58:24.636Z,1009.15
2017-01-15T01:58:50.731Z,1009.16
2017-01-15T01:59:16.836Z,1009.18
2017-01-15T01:59:42.929Z,1009.14
2017-01-15T02:00:09.017Z,1009.16
2017-01-15T02:00:35.121Z,1009.18
2017-01-15T02:01:01.225Z,1009.12
2017-01-15T02:01:27.325Z,1009.17
2017-01-15T02:01:53.417Z,1009.12
2017-01-15T02:02:19.508Z,1009.12
2017-01-15T02:02:45.619Z,1009.15
2017-01-15T02:03:11.712Z,1009.14
2017-01-15T02:03:37.801Z,1009.12
2017-01-15T02:04:03.908Z,1009.18
2017-01-15T02:04:30.006Z,1009.15
2017-01-15T02:04:56.093Z,1009.13
2017-01-15T02:05:22.204Z,1009.16
2017-01-15T02:05:48.307Z,1009.17
2017-01-15T02:06:14.399Z,1009.17
2017-01-15T02:06:40.496Z,1009.16
2017-01-15T02:07:06.589Z,1009.16
2017-01-15T02:07:32.698Z,1009.15
2017-01-15T02:07:58.792Z,1009.16
2017-01-15T02:08:24.878Z,1009.14
2017-01-15T02:08:50.989Z,1009.18
2017-01-15T02:09:17.087Z,1009.16
2017-01-15T02:09:43.175Z,1009.13
2017-01-15T02:10:09.274Z,1009.17
2017-01-15T02:10:35.382Z,1009.19
2017-01-15T02:11:01.463Z,1009.15
2017-01-15T02:11:27.567Z,1009.2
2017-01-15T02:11:53.662Z,1009.24
2017-01-15T02:12:19.764Z,1009.21
2017-01-15T02:12:45.859Z,1009.19
2017-01-15T02:13:11.947Z,1009.21
2017-01-15T02:13:38.054Z,1009.18
2017-01-15T02:14:04.162Z,1009.14
2017-01-15T02:14:30.243Z,1009.19
2017-01-15T02:14:56.339Z,1009.18
2017-01-15T02:15:22.444Z,1009.16
2017-01-15T02:15:48.533Z,1009.18
2017-01-15T02:16:14.630Z,1009.17
2017-01-15T02:16:40.735Z,1009.26
2017-01-15T02:17:06.824Z,1009.21
2017-01-15T02:17:32.926Z,1009.22
2017-01-15T02:17:59.009Z,1009.23
2017-01-15T02:18:25.105Z,1009.25
2017-01-15T02:18:51.214Z,1009.23
2017-01-15T02:19:17.297Z,1009.23
2017-01-15T02:19:43.395Z,1009.19
2017-01-15T02:20:09.496Z,1009.2
2017-01-15T02:20:35.590Z,1009.24
2017-01-15T02:21:01.675Z,1009.21
2017-01-15T02:21:27.786Z,1009.27
2017-01-15T02:21:53.879Z,1009.21
2017-01-15T02:22:19.973Z,1009.23
2017-01-15T02:22:46.078Z,1009.2
2017-01-15T02:23:12.164Z,1009.18
2017-01-15T02:23:38.275Z,1009.18
2017-01-15T02:24:04.369Z,1009.17
2017-01-15T02:24:30.458Z,1009.19
2017-01-15T02:24:56.572Z,1009.13
2017-01-15T02:25:22.657Z,1009.17
2017-01-15T02:25:48.795Z,1009.17
2017-01-15T02:26:14.903Z,1009.2
2017-01-15T02:26:41.007Z,1009.18
2017-01-15T02:27:07.091Z,1009.2
2017-01-15T02:27:33.194Z,1009.21
2017-01-15T02:27:59.295Z,1009.23
2017-01-15T02:28:25.390Z,1009.23
2017-01-15T02:28:51.484Z,1009.25
2017-01-15T02:29:17.571Z,1009.22
2017-01-15T02:29:43.676Z,1009.22
2017-01-15T02:30:09.776Z,1009.23
2017-01-15T02:30:35.863Z,1009.26
2017-01-15T02:31:01.962Z,1009.24
2017-01-15T02:31:28.072Z,1009.27
2017-01-15T02:31:54.155Z,1009.28
2017-01-15T02:32:20.288Z,1009.34
2017-01-15T02:32:46.386Z,1009.29
2017-01-15T02:33:12.482Z,1009.29
2017-01-15T02:33:38.579Z,1009.26
2017-01-15T02:34:04.669Z,1009.26
2017-01-15T02:34:30.770Z,1009.3
2017-01-15T02:34:56.879Z,1009.29
2017-01-15T02:35:22.965Z,1009.26
2017-01-15T02:35:49.067Z,1009.31
2017-01-15T02:36:15.171Z,1009.28
2017-01-15T02:36:41.259Z,1009.27
2017-01-15T02:37:07.354Z,1009.28
2017-01-15T02:37:33.467Z,1009.27
2017-01-15T02:37:59.557Z,1009.28
2017-01-15T02:38:25.645Z,1009.29
2017-01-15T02:38:51.776Z,1009.27
2017-01-15T02:39:17.872Z,1009.31
2017-01-15T02:39:43.960Z,1009.31
2017-01-15T02:40:10.061Z,1009.28
2017-01-15T02:40:36.159Z,1009.26
2017-01-15T02:41:02.254Z,1009.32
2017-01-15T02:41:28.356Z,1009.28
2017-01-15T02:41:54.461Z,1009.3
2017-01-15T02:42:20.543Z,1009.32
2017-01-15T02:42:46.641Z,1009.34
2017-01-15T02:43:12.750Z,1009.29
2017-01-15T02:43:38.838Z,1009.32
2017-01-15T02:44:04.935Z,1009.27
2017-01-15T02:44:31.040Z,1009.27
2017-01-15T02:44:57.128Z,1009.33
2017-01-15T02:45:23.241Z,1009.28
2017-01-15T02:45:49.328Z,1009.29
2017-01-15T02:46:15.421Z,1009.27
2017-01-15T02:46:41.527Z,1009.26
2017-01-15T02:47:07.612Z,1009.26
2017-01-15T02:47:33.712Z,1009.3
2017-01-15T02:47:59.812Z,1009.27
2017-01-15T02:48:25.905Z,1009.23
2017-01-15T02:48:52.012Z,1009.31
2017-01-15T02:49:18.126Z,1009.31
2017-01-15T02:49:44.218Z,1009.31
2017-01-15T02:50:10.331Z,1009.3
2017-01-15T02:50:36.440Z,1009.34
2017-01-15T02:51:02.530Z,1009.27
2017-01-15T02:51:28.636Z,1009.3
2017-01-15T02:51:54.722Z,1009.33
2017-01-15T02:52:20.814Z,1009.35
2017-01-15T02:52:46.926Z,1009.32
2017-01-15T02:53:13.023Z,1009.32
2017-01-15T02:53:39.107Z,1009.39
2017-01-15T02:54:05.218Z,1009.34
2017-01-15T02:54:31.316Z,1009.34
2017-01-15T02:54:57.404Z,1009.34
2017-01-15T02:55:23.501Z,1009.34
2017-01-15T02:55:49.654Z,1009.35
2017-01-15T02:56:15.748Z,1009.31
2017-01-15T02:56:41.844Z,1009.36
2017-01-15T02:57:07.930Z,1009.4
2017-01-15T02:57:34.033Z,1009.36
2017-01-15T02:58:00.126Z,1009.35
2017-01-15T02:58:26.236Z,1009.37
2017-01-15T02:58:52.322Z,1009.36
2017-01-15T02:59:18.429Z,1009.34
2017-01-15T02:59:44.511Z,1009.35
2017-01-15T03:00:10.614Z,1009.33
2017-01-15T03:00:36.717Z,1009.24
2017-01-15T03:01:02.809Z,1009.27
2017-01-15T03:01:28.907Z,1009.32
2017-01-15T03:01:54.999Z,1009.3
2017-01-15T03:02:21.100Z,1009.33
2017-01-15T03:02:47.211Z,1009.31
2017-01-15T03:03:13.290Z,1009.3
2017-01-15T03:03:39.394Z,1009.27
2017-01-15T03:04:05.496Z,1009.32
2017-01-15T03:04:31.585Z,1009.36
2017-01-15T03:04:57.710Z,1009.33
2017-01-15T03:05:23.818Z,1009.32
2017-01-15T03:05:49.914Z,1009.31
2017-01-15T03:06:16.003Z,1009.33
2017-01-15T03:06:42.114Z,1009.33
2017-01-15T03:07:08.203Z,1009.33
2017-01-15T03:07:34.307Z,1009.36
2017-01-15T03:08:00.395Z,1009.41
2017-01-15T03:08:26.496Z,1009.4
2017-01-15T03:08:52.596Z,1009.36
2017-01-15T03:09:18.712Z,1009.39
2017-01-15T03:09:44.805Z,1009.4
2017-01-15T03:10:10.940Z,1009.39
2017-01-15T03:10:37.039Z,1009.4
2017-01-15T03:11:03.125Z,1009.41
2017-01-15T03:11:29.233Z,1009.43
2017-01-15T03:11:55.330Z,1009.49
2017-01-15T03:12:21.418Z,1009.52
2017-01-15T03:12:47.522Z,1009.49
2017-01-15T03:13:13.605Z,1009.39
2017-01-15T03:13:39.717Z,1009.45
2017-01-15T03:14:05.813Z,1009.43
2017-01-15T03:14:31.901Z,1009.46
2017-01-15T03:14:58.004Z,1009.41
2017-01-15T03:15:24.100Z,1009.41
2017-01-15T03:15:50.189Z,1009.39
2017-01-15T03:16:16.288Z,1009.45
2017-01-15T03:16:42.394Z,1009.44
2017-01-15T03:17:08.482Z,1009.41
2017-01-15T03:17:34.587Z,1009.45
2017-01-15T03:18:00.689Z,1009.47
2017-01-15T03:18:26.780Z,1009.47
2017-01-15T03:18:52.883Z,1009.48
2017-01-15T03:19:18.966Z,1009.49
2017-01-15T03:19:45.072Z,1009.52
2017-01-15T03:20:11.176Z,1009.46
2017-01-15T03:20:37.268Z,1009.52
2017-01-15T03:21:03.392Z,1009.55
2017-01-15T03:21:29.496Z,1009.52
2017-01-15T03:21:55.578Z,1009.52
2017-01-15T03:22:21.673Z,1009.5
2017-01-15T03:22:47.772Z,1009.53
2017-01-15T03:23:13.861Z,1009.52
2017-01-15T03:23:39.950Z,1009.43
2017-01-15T03:24:06.058Z,1009.49
2017-01-15T03:24:32.156Z,1009.57
2017-01-15T03:24:58.235Z,1009.55
2017-01-15T03:25:24.342Z,1009.54
2017-01-15T03:25:50.434Z,1009.51
2017-01-15T03:26:16.528Z,1009.5
2017-01-15T03:26:42.632Z,1009.56
2017-01-15T03:27:08.734Z,1009.53
2017-01-15T03:27:34.819Z,1009.53
2017-01-15T03:28:00.920Z,1009.56
2017-01-15T03:28:27.028Z,1009.52
2017-01-15T03:28:53.120Z,1009.53
2017-01-15T03:29:19.215Z,1009.53
2017-01-15T03:29:45.314Z,1009.6
2017-01-15T03:30:11.440Z,1009.58
2017-01-15T03:30:37.545Z,1009.58
2017-01-15T03:31:03.632Z,1009.62
2017-01-15T03:31:29.728Z,1009.63
2017-01-15T03:31:55.839Z,1009.6
2017-01-15T03:32:21.924Z,1009.54
2017-01-15T03:32:48.020Z,1009.57
2017-01-15T03:33:14.127Z,1009.62
2017-01-15T03:33:40.216Z,1009.6
2017-01-15T03:34:06.307Z,1009.54
2017-01-15T03:34:32.444Z,1009.61
2017-01-15T03:34:58.539Z,1009.59
2017-01-15T03:35:24.641Z,1009.56
2017-01-15T03:35:50.732Z,1009.59
2017-01-15T03:36:16.879Z,1009.59
2017-01-15T03:36:42.983Z,1009.62
2017-01-15T03:37:09.073Z,1009.58
2017-01-15T03:37:35.159Z,1009.61
2017-01-15T03:38:01.271Z,1009.6
2017-01-15T03:38:27.366Z,1009.58
2017-01-15T03:38:53.454Z,1009.58
2017-01-15T03:39:19.588Z,1009.59
2017-01-15T03:39:45.689Z,1009.56
2017-01-15T03:40:11.783Z,1009.57
2017-01-15T03:40:37.882Z,1009.59
2017-01-15T03:41:03.977Z,1009.6
2017-01-15T03:41:30.080Z,1009.56
2017-01-15T03:41:56.179Z,1009.58
2017-01-15T03:42:22.263Z,1009.53
2017-01-15T03:42:48.373Z,1009.57
2017-01-15T03:43:14.472Z,1009.58
2017-01-15T03:43:40.562Z,1009.61
2017-01-15T03:44:06.664Z,1009.57
2017-01-15T03:44:32.768Z,1009.54
2017-01-15T03:44:58.850Z,1009.6
2017-01-15T03:45:24.948Z,1009.6
2017-01-15T03:45:51.053Z,1009.59
2017-01-15T03:46:17.136Z,1009.58
2017-01-15T03:46:43.234Z,1009.61
2017-01-15T03:47:09.317Z,1009.55
2017-01-15T03:47:35.419Z,1009.6
2017-01-15T03:48:01.523Z,1009.61
2017-01-15T03:48:27.611Z,1009.57
2017-01-15T03:48:53.716Z,1009.59
2017-01-15T03:49:19.820Z,1009.62
2017-01-15T03:49:45.907Z,1009.6
2017-01-15T03:50:11.998Z,1009.6
2017-01-15T03:50:38.105Z,1009.62
2017-01-15T03:51:04.195Z,1009.6
2017-01-15T03:51:30.289Z,1009.6
2017-01-15T03:51:56.385Z,1009.62
2017-01-15T03:52:22.484Z,1009.62
2017-01-15T03:52:48.591Z,1009.61
2017-01-15T03:53:14.684Z,1009.59
2017-01-15T03:53:40.781Z,1009.66
2017-01-15T03:54:06.884Z,1009.65
2017-01-15T03:54:32.975Z,1009.7
2017-01-15T03:54:59.058Z,1009.72
2017-01-15T03:55:25.170Z,1009.69
2017-01-15T03:55:51.268Z,1009.7
2017-01-15T03:56:17.354Z,1009.67
2017-01-15T03:56:43.456Z,1009.68
2017-01-15T03:57:09.553Z,1009.65
2017-01-15T03:57:35.656Z,1009.66
2017-01-15T03:58:01.745Z,1009.65
2017-01-15T03:58:27.831Z,1009.69
2017-01-15T03:58:53.937Z,1009.71
2017-01-15T03:59:20.059Z,1009.7
2017-01-15T03:59:46.152Z,1009.69
2017-01-15T04:00:12.254Z,1009.68
2017-01-15T04:00:38.352Z,1009.68
2017-01-15T04:01:04.436Z,1009.66
2017-01-15T04:01:30.542Z,1009.68
2017-01-15T04:01:56.646Z,1009.71
2017-01-15T04:02:22.737Z,1009.7
2017-01-15T04:02:48.835Z,1009.67
2017-01-15T04:03:14.922Z,1009.7
2017-01-15T04:03:41.029Z,1009.7
2017-01-15T04:04:07.129Z,1009.74
2017-01-15T04:04:33.220Z,1009.74
2017-01-15T04:04:59.322Z,1009.73
2017-01-15T04:05:25.425Z,1009.74
2017-01-15T04:05:51.507Z,1009.72
2017-01-15T04:06:17.608Z,1009.77
2017-01-15T04:06:43.732Z,1009.76
2017-01-15T04:07:09.801Z,1009.73
2017-01-15T04:07:35.895Z,1009.78
2017-01-15T04:08:02.021Z,1009.79
2017-01-15T04:08:28.117Z,1009.8
2017-01-15T04:08:54.205Z,1009.77
2017-01-15T04:09:20.315Z,1009.78
2017-01-15T04:09:46.418Z,1009.8
2017-01-15T04:10:12.501Z,1009.83
2017-01-15T04:10:38.607Z,1009.81
2017-01-15T04:11:04.703Z,1009.85
2017-01-15T04:11:30.796Z,1009.87
2017-01-15T04:11:56.893Z,1009.89
2017-01-15T04:12:23.002Z,1009.87
2017-01-15T04:12:49.083Z,1009.87
2017-01-15T04:13:15.188Z,1009.85
2017-01-15T04:13:41.288Z,1009.88
2017-01-15T04:14:07.379Z,1009.91
2017-01-15T04:14:33.479Z,1009.9
2017-01-15T04:14:59.569Z,1009.9
2017-01-15T04:15:25.674Z,1009.88
2017-01-15T04:15:51.779Z,1009.95
2017-01-15T04:16:17.867Z,1009.92
2017-01-15T04:16:43.965Z,1009.89
2017-01-15T04:17:10.100Z,1009.91
2017-01-15T04:17:36.188Z,1009.9
2017-01-15T04:18:02.279Z,1009.89
2017-01-15T04:18:28.387Z,1009.89
2017-01-15T04:18:54.476Z,1009.91
2017-01-15T04:19:20.598Z,1009.93
2017-01-15T04:19:46.694Z,1009.88
2017-01-15T04:20:12.797Z,1009.96
2017-01-15T04:20:38.901Z,1009.92
2017-01-15T04:21:04.988Z,1009.95
2017-01-15T04:21:31.082Z,1009.98
2017-01-15T04:21:57.191Z,1009.95
2017-01-15T04:22:23.283Z,1009.99
2017-01-15T04:22:49.369Z,1009.97
2017-01-15T04:23:15.482Z,1010.03
2017-01-15T04:23:41.574Z,1010.02
2017-01-15T04:24:07.666Z,1010.02
2017-01-15T04:24:33.766Z,1010.01
2017-01-15T04:24:59.865Z,1010.01
2017-01-15T04:25:25.967Z,1009.99
2017-01-15T04:25:52.054Z,1010.01
2017-01-15T04:26:18.145Z,1009.97
2017-01-15T04:26:44.257Z,1010
2017-01-15T04:27:10.352Z,1010
2017-01-15T04:27:36.446Z,1009.98
2017-01-15T04:28:02.545Z,1009.95
2017-01-15T04:28:28.645Z,1009.99
2017-01-15T04:28:54.728Z,1009.96
2017-01-15T04:29:20.837Z,1010.02
2017-01-15T04:29:46.937Z,1009.98
2017-01-15T04:30:13.025Z,1009.98
2017-01-15T04:30:39.120Z,1009.97
2017-01-15T04:31:05.229Z,1010.03
2017-01-15T04:31:31.315Z,1010.04
2017-01-15T04:31:57.417Z,1010.01
2017-01-15T04:32:23.521Z,1010.04
2017-01-15T04:32:49.614Z,1010.05
2017-01-15T04:33:15.732Z,1010.08
2017-01-15T04:33:41.840Z,1010.08
2017-01-15T04:34:07.934Z,1010.12
2017-01-15T04:34:34.018Z,1010.05
2017-01-15T04:35:00.135Z,1010.11
2017-01-15T04:35:26.226Z,1010.13
2017-01-15T04:35:52.319Z,1010.08
2017-01-15T04:36:18.417Z,1010.08
2017-01-15T04:36:44.511Z,1010.1
2017-01-15T04:37:10.643Z,1010.16
2017-01-15T04:37:36.733Z,1010.1
2017-01-15T04:38:02.823Z,1010.16
2017-01-15T04:38:28.928Z,1010.19
2017-01-15T04:38:55.029Z,1010.13
2017-01-15T04:39:21.143Z,1010.15
2017-01-15T04:39:47.246Z,1010.1
2017-01-15T04:40:13.356Z,1010.15
2017-01-15T04:40:39.441Z,1010.1
2017-01-15T04:41:05.537Z,1010.15
2017-01-15T04:41:31.640Z,1010.17
2017-01-15T04:41:57.732Z,1010.18
2017-01-15T04:42:23.829Z,1010.19
2017-01-15T04:42:49.915Z,1010.13
2017-01-15T04:43:16.015Z,1010.17
2017-01-15T04:43:42.123Z,1010.17
2017-01-15T04:44:08.210Z,1010.18
2017-01-15T04:44:34.305Z,1010.14
2017-01-15T04:45:00.415Z,1010.12
2017-01-15T04:45:26.498Z,1010.16
2017-01-15T04:45:52.589Z,1010.15
2017-01-15T04:46:18.694Z,1010.18
2017-01-15T04:46:44.785Z,1010.17
2017-01-15T04:47:10.880Z,1010.18
2017-01-15T04:47:36.980Z,1010.19
2017-01-15T04:48:03.075Z,1010.16
2017-01-15T04:48:29.183Z,1010.15
2017-01-15T04:48:55.277Z,1010.17
2017-01-15T04:49:21.373Z,1010.19
2017-01-15T04:49:47.477Z,1010.17
2017-01-15T04:50:13.570Z,1010.17
2017-01-15T04:50:39.659Z,1010.18
2017-01-15T04:51:05.766Z,1010.19
2017-01-15T04:51:31.866Z,1010.2
2017-01-15T04:51:57.954Z,1010.23
2017-01-15T04:52:24.054Z,1010.23
2017-01-15T04:52:50.148Z,1010.23
2017-01-15T04:53:16.240Z,1010.28
2017-01-15T04:53:42.343Z,1010.3
2017-01-15T04:54:08.453Z,1010.33
2017-01-15T04:54:34.536Z,1010.37
2017-01-15T04:55:00.634Z,1010.33
2017-01-15T04:55:26.739Z,1010.36
2017-01-15T04:55:52.828Z,1010.39
2017-01-15T04:56:18.918Z,1010.39
2017-01-15T04:56:45.028Z,1010.37
2017-01-15T04:57:11.115Z,1010.34
2017-01-15T04:57:37.207Z,1010.35
2017-01-15T04:58:03.311Z,1010.29
2017-01-15T04:58:29.411Z,1010.34
2017-01-15T04:58:55.508Z,1010.35
2017-01-15T04:59:21.598Z,1010.37
2017-01-15T04:59:47.687Z,1010.35
2017-01-15T05:00:13.799Z,1010.36
2017-01-15T05:00:39.886Z,1010.33
2017-01-15T05:01:05.980Z,1010.34
2017-01-15T05:01:32.091Z,1010.37
2017-01-15T05:01:58.185Z,1010.35
2017-01-15T05:02:24.271Z,1010.34
2017-01-15T05:02:50.379Z,1010.34
2017-01-15T05:03:16.502Z,1010.35
2017-01-15T05:03:42.596Z,1010.38
2017-01-15T05:04:08.694Z,1010.36
2017-01-15T05:04:34.780Z,1010.34
2017-01-15T05:05:00.889Z,1010.32
2017-01-15T05:05:26.984Z,1010.42
2017-01-15T05:05:53.075Z,1010.38
2017-01-15T05:06:19.176Z,1010.41
2017-01-15T05:06:45.276Z,1010.42
2017-01-15T05:07:11.369Z,1010.44
2017-01-15T05:07:37.467Z,1010.42
2017-01-15T05:08:03.578Z,1010.45
2017-01-15T05:08:29.662Z,1010.45
2017-01-15T05:08:55.762Z,1010.43
2017-01-15T05:09:21.866Z,1010.41
2017-01-15T05:09:47.957Z,1010.42
2017-01-15T05:10:14.062Z,1010.4
2017-01-15T05:10:40.151Z,1010.41
2017-01-15T05:11:06.247Z,1010.45
2017-01-15T05:11:32.351Z,1010.41
2017-01-15T05:11:58.430Z,1010.41
2017-01-15T05:12:24.532Z,1010.38
2017-01-15T05:12:50.640Z,1010.38
2017-01-15T05:13:16.728Z,1010.39
2017-01-15T05:13:42.817Z,1010.35
2017-01-15T05:14:08.931Z,1010.35
2017-01-15T05:14:35.019Z,1010.39
2017-01-15T05:15:01.111Z,1010.43
2017-01-15T05:15:27.212Z,1010.43
2017-01-15T05:15:53.309Z,1010.44
2017-01-15T05:16:19.410Z,1010.4
2017-01-15T05:16:45.504Z,1010.43